Tiempo atmosférico en la estación meteorológica de Monesterio, Badajoz (750 m.)



Fecha
DESCASC
Temp. máxima en grados centígrados (hora)
DESCASC
Temp. mínima en grados centígrados (hora)
DESCASC
Temp. media en grados centígrados
DESCASC
Racha de viento máxima en m/sg (hora)
DESCASC
Velocidad máxima media en intervalos de 10 minutos(hora)
DESCASC
Precipitaciones diarias en mm
DESCASC
Precipitaciones de 00:00 a 06:00 en mm
DESCASC
Precipitaciones de 06:00 a 12:00 en mm
DESCASC
Precipitaciones de 12:00 a 18:00 en mm
DESCASC
Precipitaciones de 18:00 a 24:00 en mm
DESCASC
22-01-2020 5.2 (16:50) 3.3 (09:30) 4.2 10 (23:50) 5.28 (23:50) 18.6 1 2.2 4 11.4
21-01-2020 6 (12:40) 2.3 (08:50) 4.1 14.44 (00:10) 7.5 (00:10) 0 0 0 0 0
20-01-2020 4.7 (12:00) 1.1 (08:50) 2.9 16.67 (12:30) 10.83 (16:00) 0 0 0 0 0
19-01-2020 9.7 (15:30) 3.7 (00:00) 6.7 12.5 (16:00) 6.94 (15:00) 0.6 0.6 0 0 0
18-01-2020 12.4 (17:30) 7.8 (00:00) 10.1 13.61 (23:10) 7.22 (10:50) 5.2 0 2.4 2.8 0
17-01-2020 12.7 (15:00) 6.5 (00:00) 9.6 10 (00:40) 5.28 (00:40) 1 1 0 0 0
16-01-2020 12.6 (16:00) 6.3 (00:00) 9.5 10 (23:40) 5.56 (21:40) 0 0 0 0 0
15-01-2020 9.4 (23:00) 5.3 (00:00) 7.3 11.67 (10:50) 6.94 (11:10) 2.6 0 0 1.8 0.8
14-01-2020 9.7 (13:20) 1.3 (00:00) 5.5 10.83 (23:40) 6.67 (23:20) 0 0 0 0 0
13-01-2020 11.7 (14:50) 2.1 (00:00) 6.9 5.83 (12:20) 3.61 (12:10) 0 0 0 0 0
12-01-2020 11.8 (14:50) 1.5 (00:00) 6.7 4.72 (15:20) 2.5 (16:50) 0 0 0 0 0
11-01-2020 10.9 (15:50) 1.9 (00:00) 6.4 6.67 (13:00) 3.89 (12:50) 0 0 0 0 0
10-01-2020 9.6 (15:40) 2.2 (00:00) 5.9 7.78 (02:10) 4.72 (11:00) 0 0 0 0 0
09-01-2020 12.3 (16:30) 3.6 (00:00) 8 8.89 (23:50) 4.44 (23:50) 0 0 0 0 0
08-01-2020 17.2 (16:40) 4.9 (00:00) 11.1 5 (21:20) 3.61 (21:30) 0 0 0 0 0
07-01-2020 15 (14:10) 3.8 (00:00) 9.4 3.89 (16:00) 2.5 (14:00) 0 0 0 0 0
06-01-2020 15 (15:10) 3.2 (00:00) 9.1 3.33 (23:20) 2.22 (23:10) 0 0 0 0 0
05-01-2020 11.5 (16:10) 2.4 (00:00) 7 4.44 (13:50) 2.78 (13:40) 0 0 0 0 0
04-01-2020 9.8 (16:20) 3.1 (00:00) 6.5 7.5 (16:30) 4.72 (16:40) 0 0 0 0 0
03-01-2020 8.8 (16:20) 6 (00:00) 7.4 6.39 (16:30) 3.33 (17:30) 0 0 0 0 0
02-01-2020 13.8 (14:20) 4.1 (00:00) 9 4.17 (13:00) 3.06 (05:20) 0 0 0 0 0
01-01-2020 16.5 (15:40) 4.6 (00:00) 10.5 4.17 (02:40) 3.06 (02:30) 0 0 0 0 0
31-12-2019 16.5 (14:30) 4.9 (00:00) 10.7 5.28 (12:40) 3.06 (12:30) 0 0 0 0 0
30-12-2019 16 (16:50) 5.7 (00:00) 10.8 5.28 (12:00) 3.06 (12:10) 0 0 0 0 0
29-12-2019 18.2 (15:20) 6.8 (00:00) 12.5 5.28 (13:10) 3.61 (01:10) 0 0 0 0 0
28-12-2019 19.6 (15:50) 10.2 (00:00) 14.9 6.39 (11:20) 3.89 (11:30) 0 0 0 0 0
27-12-2019 18.6 (15:20) 10.6 (00:00) 14.6 8.89 (11:00) 5.56 (09:40) 0 0 0 0 0
26-12-2019 16.6 (13:20) 8.7 (00:00) 12.7 4.44 (15:50) 2.78 (15:50) 0 0 0 0 0
25-12-2019 21.1 (15:10) 12.5 (00:00) 16.8 8.33 (04:20) 5.83 (04:20) 0 0 0 0 0

Gráficas

Temp. máximas Temp. mínimas Temp. medias Precipitaciones Rachas de viento máximas Velocidades máximas media en intervalos de 10 minutos

Datos horarios

Fecha y hora oficial Temperatura (ºC) Velocidad del viento (km/h) Dirección del viento Racha (km/h) Dirección de racha Precipitación (mm) Presión (hPa) Tendencia (hPa) Humedad (%)
2020-01-23 23:00:00 -- -- -- -- -- -- -- -- --
2020-01-23 22:00:00 6 13 Sudeste 28 Sudeste 0 -- -- 100
2020-01-23 21:00:00 6.2 16 Sur 31 Sur 0.2 -- -- 100
2020-01-23 20:00:00 6.1 17 Sur 33 Sur 0 -- -- 100
2020-01-23 19:00:00 5.9 14 Sudeste 27 Sur 1.2 -- -- 100
2020-01-23 18:00:00 5.7 7 Sur 22 Sur 2 -- -- 100
2020-01-23 17:00:00 5.7 10 Sudeste 28 Sur 3.6 -- -- 99
2020-01-23 16:00:00 5.6 17 Sur 30 Sur 1.2 -- -- 99
2020-01-23 15:00:00 5.3 17 Sur 39 Sur 2 -- -- 100
2020-01-23 14:00:00 4.7 19 Sur 40 Sur 6.4 -- -- 100
2020-01-23 13:00:00 5.7 17 Sudeste 35 Sudeste 0.4 -- -- 100
2020-01-23 12:00:00 5.5 22 Sudeste 43 Sudeste 0.4 -- -- 100
2020-01-23 11:00:00 5.4 15 Sudeste 31 Sudeste 0.6 -- -- 100
2020-01-23 10:00:00 5.4 14 Sudeste 33 Sudeste 0.2 -- -- 100
2020-01-23 09:00:00 5.4 17 Sudeste 29 Sudeste 0.4 -- -- 100
2020-01-23 08:00:00 5.4 13 Sudeste 34 Sudeste 0.2 -- -- 100
2020-01-23 07:00:00 5.4 13 Sudeste 32 Sudeste 0.2 -- -- 100
2020-01-23 06:00:00 5.2 14 Sudeste 34 Sudeste 0.4 -- -- 100
2020-01-23 05:00:00 5.2 15 Sudeste 37 Sudeste 0.8 -- -- 100
2020-01-23 04:00:00 5.1 19 Sudeste 39 Sudeste 0.8 -- -- 100
2020-01-23 03:00:00 5 20 Sur 41 Sur 0.6 -- -- 100
2020-01-23 02:00:00 4.9 12 Sudeste 36 Sudeste 0.8 -- -- 100
2020-01-23 01:00:00 4.9 21 Sudeste 42 Sudeste 1.4 -- -- 100
2020-01-23 00:00:00 5.1 17 Sudeste 36 Sur 2 -- -- 100
2020-01-22 23:00:00 4.7 15 Sudeste 32 Sudeste 1.2 -- -- 100
2020-01-22 22:00:00 4.6 17 Sudeste 32 Sudeste 0.6 -- -- 100
2020-01-22 21:00:00 4.4 18 Sudeste 34 Sudeste 3.2 -- -- 100
2020-01-22 20:00:00 4.9 12 Sur 26 Sudeste 4.4 -- -- 100
2020-01-22 19:00:00 4.9 6 Sur 23 Este 0 -- -- 100
2020-01-22 18:00:00 5.2 10 Sudeste 18 Este 0 -- -- 100
2020-01-22 17:00:00 5.1 10 Sudeste 23 Sudeste 0.6 -- -- 100
2020-01-22 16:00:00 5 13 Sudeste 25 Sudeste 0.4 -- -- 100
2020-01-22 15:00:00 4.8 12 Sudeste 22 Sudeste 1.2 -- -- 100
2020-01-22 14:00:00 4.6 12 Sudeste 29 Sudeste 1.2 -- -- 100
2020-01-22 13:00:00 4.4 14 Sudeste 29 Sudeste 0.6 -- -- 100
2020-01-22 12:00:00 4 13 Sudeste 27 Sudeste 0 -- -- 100
2020-01-22 11:00:00 3.6 14 Sudeste 27 Sudeste 1 -- -- 100
2020-01-22 10:00:00 3.4 12 Sudeste 27 Este 0.2 -- -- 99
2020-01-22 09:00:00 3.4 13 Este 21 Sudeste 0 -- -- 99
2020-01-22 08:00:00 3.5 9 Este 19 Este 0.6 -- -- 99
2020-01-22 07:00:00 3.5 7 Este 16 Este 0.4 -- -- 99
2020-01-22 06:00:00 3.5 4 Este 12 Este 0.4 -- -- 98
2020-01-22 05:00:00 3.5 3 Nordeste 8 Nordeste 0.4 -- -- 97
2020-01-22 04:00:00 3.8 3 Nordeste 7 Nordeste 0.2 -- -- 95
2020-01-22 03:00:00 3.8 4 Sudeste 17 Sudeste 0 -- -- 94
2020-01-22 02:00:00 3.7 6 Nordeste 17 Este 0 -- -- 94
2020-01-22 01:00:00 4 10 Nordeste 18 Este 0 -- -- 93
2020-01-22 00:00:00 4.3 9 Este 19 Este 0 -- -- 91
2020-01-21 23:00:00 4.3 8 Este 17 Este 0 -- -- 91
2020-01-21 22:00:00 4 5 Nordeste 21 Norte 0 -- -- 92
2020-01-21 21:00:00 3.8 15 Nordeste 27 Nordeste 0 -- -- 92
2020-01-21 20:00:00 4.3 17 Nordeste 32 Nordeste 0 -- -- 91
2020-01-21 19:00:00 4.9 18 Nordeste 36 Nordeste 0 -- -- 82
2020-01-21 18:00:00 5.3 10 Nordeste 24 Nordeste 0 -- -- 79
2020-01-21 17:00:00 5.8 15 Nordeste 31 Nordeste 0 -- -- 77
2020-01-21 16:00:00 6 17 Nordeste 34 Nordeste 0 -- -- 75
2020-01-21 15:00:00 5.5 17 Nordeste 33 Norte 0 -- -- 75
2020-01-21 14:00:00 5.5 10 Nordeste 28 Norte 0 -- -- 74
2020-01-21 13:00:00 5.3 13 Norte 31 Noroeste 0 -- -- 72
2020-01-21 12:00:00 5.4 16 Norte 33 Nordeste 0 -- -- 72
2020-01-21 11:00:00 4.3 9 Norte 21 Norte 0 -- -- 77
2020-01-21 10:00:00 3.3 13 Nordeste 29 Nordeste 0 -- -- 79
2020-01-21 09:00:00 2.4 19 Nordeste 30 Nordeste 0 -- -- 82
2020-01-21 08:00:00 2.7 14 Nordeste 33 Nordeste 0 -- -- 80
2020-01-21 07:00:00 2.6 8 Nordeste 18 Nordeste 0 -- -- 79
2020-01-21 06:00:00 2.7 6 Nordeste 19 Nordeste 0 -- -- 78
2020-01-21 05:00:00 3.2 3 Este 21 Nordeste 0 -- -- 77
2020-01-21 04:00:00 3 5 Nordeste 31 Nordeste 0 -- -- 81
2020-01-21 03:00:00 2.9 15 Nordeste 36 Nordeste 0 -- -- 82
2020-01-21 02:00:00 3.2 18 Nordeste 34 Este 0 -- -- 80
2020-01-21 01:00:00 3.6 19 Este 52 Nordeste 0 -- -- 79
2020-01-21 00:00:00 3.7 21 Nordeste 50 Nordeste 0 -- -- 79
2020-01-20 23:00:00 3.5 18 Nordeste 38 Este 0 -- -- 80
2020-01-20 22:00:00 3.7 23 Nordeste 48 Este 0 -- -- 78
2020-01-20 21:00:00 3.7 23 Nordeste 47 Nordeste 0 -- -- 79
2020-01-20 20:00:00 3.5 18 Nordeste 47 Nordeste 0 -- -- 78
2020-01-20 19:00:00 3.5 24 Nordeste 48 Nordeste 0 -- -- 72
2020-01-20 18:00:00 4.2 22 Nordeste 49 Nordeste 0 -- -- 69
2020-01-20 17:00:00 4.5 24 Nordeste 55 Nordeste 0 -- -- 66
2020-01-20 16:00:00 3.8 39 Nordeste 59 Nordeste 0 -- -- 68
2020-01-20 15:00:00 4.1 30 Nordeste 53 Nordeste 0 -- -- 67
2020-01-20 14:00:00 3.2 37 Nordeste 57 Nordeste 0 -- -- 69
2020-01-20 13:00:00 4.3 28 Nordeste 60 Nordeste 0 -- -- 64
2020-01-20 12:00:00 4.7 33 Nordeste 55 Nordeste 0 -- -- 59
2020-01-20 11:00:00 3.4 22 Nordeste 36 Nordeste 0 -- -- 56
2020-01-20 10:00:00 2.3 21 Nordeste 36 Nordeste 0 -- -- 57
2020-01-20 09:00:00 1.1 12 Nordeste 27 Norte 0 -- -- 58
2020-01-20 08:00:00 1.5 11 Norte 22 Nordeste 0 -- -- 55
2020-01-20 07:00:00 1.4 9 Norte 38 Norte 0 -- -- 57
2020-01-20 06:00:00 1.8 19 Nordeste 37 Nordeste 0 -- -- 58
2020-01-20 05:00:00 1.8 17 Nordeste 33 Nordeste 0 -- -- 58
2020-01-20 04:00:00 2.3 17 Norte 35 Nordeste 0 -- -- 57
2020-01-20 03:00:00 2.5 18 Norte 40 Norte 0 -- -- 56
2020-01-20 02:00:00 3.1 19 Nordeste 40 Norte 0 -- -- 56
2020-01-20 01:00:00 3.8 20 Nordeste 41 Norte 0 -- -- 53
2020-01-20 00:00:00 4.2 15 Nordeste 29 Nordeste 0 -- -- 57
2020-01-19 23:00:00 3.8 9 Nordeste 25 Nordeste 0 -- -- 75
2020-01-19 22:00:00 4.8 14 Nordeste 35 Nordeste 0 -- -- 61
2020-01-19 21:00:00 5.8 17 Norte 38 Norte 0 -- -- 53
2020-01-19 20:00:00 6.5 15 Norte 40 Norte 0 -- -- 61
2020-01-19 19:00:00 7.3 20 Norte 37 Norte 0 -- -- 57
2020-01-19 18:00:00 7.9 20 Norte 37 Norte 0 -- -- 58
2020-01-19 17:00:00 8.2 19 Norte 42 Norte 0 -- -- 68
2020-01-19 16:00:00 8.8 21 Norte 45 Nordeste 0 -- -- 69
2020-01-19 15:00:00 8.9 25 Norte 44 Norte 0 -- -- 71
2020-01-19 14:00:00 8.2 21 Norte 38 Norte 0 -- -- 79
2020-01-19 13:00:00 7.5 19 Norte 37 Norte 0 -- -- 85
2020-01-19 12:00:00 6.8 18 Norte 33 Norte 0 -- -- 90
2020-01-19 11:00:00 5.4 18 Norte 42 Norte 0 -- -- 99
2020-01-19 10:00:00 5.4 16 Norte 38 Norte 0 -- -- 100
2020-01-19 09:00:00 5.4 19 Noroeste 35 Noroeste 0 -- -- 100
2020-01-19 08:00:00 5.5 15 Noroeste 35 Noroeste 0 -- -- 100
2020-01-19 07:00:00 5.5 22 Noroeste 44 Noroeste 0 -- -- 100
2020-01-19 06:00:00 5.4 19 Noroeste 35 Noroeste 0 -- -- 99
2020-01-19 05:00:00 5.2 16 Noroeste 43 Noroeste 0 -- -- 98
2020-01-19 04:00:00 5.2 19 Noroeste 36 Noroeste 0 -- -- 97
2020-01-19 03:00:00 5.7 18 Noroeste 40 Noroeste 0.2 -- -- 95
2020-01-19 02:00:00 7.1 22 Noroeste 41 Noroeste 0 -- -- 97
2020-01-19 01:00:00 7.3 13 Noroeste 40 Oeste 0.4 -- -- 95
2020-01-19 00:00:00 7.8 20 Noroeste 49 Noroeste 0 -- -- 91
2020-01-18 23:00:00 8.8 23 Noroeste 45 Oeste 0 -- -- 93
2020-01-18 22:00:00 9.3 23 Oeste 42 Oeste 0 -- -- 92
2020-01-18 21:00:00 9.6 13 Oeste 28 Oeste 0 -- -- 86
2020-01-18 20:00:00 9.5 6 Sudoeste 19 Sudoeste 0 -- -- 93
2020-01-18 19:00:00 10.3 8 Sudoeste 21 Oeste 0 -- -- 93
2020-01-18 18:00:00 11.7 8 Oeste 21 Oeste 0 -- -- 91
2020-01-18 17:00:00 12 7 Oeste 23 Oeste 2.6 -- -- 97
2020-01-18 16:00:00 11.8 8 Sudoeste 22 Sudoeste 0.2 -- -- 96
2020-01-18 15:00:00 11.6 11 Sudoeste 29 Sur 0 -- -- 96
2020-01-18 14:00:00 11.2 17 Sur 32 Sur 0 -- -- 96
2020-01-18 13:00:00 10.7 20 Sur 34 Sur 0 -- -- 96
2020-01-18 12:00:00 10.5 20 Sur 39 Sur 0.2 -- -- 97
2020-01-18 11:00:00 9.5 19 Sur 40 Sur 0.6 -- -- 98
2020-01-18 10:00:00 8.9 11 Sur 38 Sur 0.4 -- -- 97
2020-01-18 09:00:00 8.8 16 Sur 37 Sur 1 -- -- 95
2020-01-18 08:00:00 8.6 7 Sur 27 Sur 0.2 -- -- 93
2020-01-18 07:00:00 9.3 17 Sur 29 Sudoeste 0 -- -- 82
2020-01-18 06:00:00 9.4 19 Sur 31 Sur 0 -- -- 68
2020-01-18 05:00:00 9.7 19 Sur 30 Sur 0 -- -- 80
2020-01-18 04:00:00 9.5 8 Sur 20 Sur 0 -- -- 80
2020-01-18 03:00:00 9.2 7 Sur 15 Sur 0 -- -- 91
2020-01-18 02:00:00 9.2 6 Sur 15 Sudoeste 0 -- -- 90
2020-01-18 01:00:00 9.1 11 Sur 17 Sur 0 -- -- 89
2020-01-18 00:00:00 8.4 7 Sur 12 Sur 0 -- -- 91
2020-01-17 23:00:00 7.8 7 Sur 10 Sur 0 -- -- 88
2020-01-17 22:00:00 7 4 Sur 6 Sudoeste 0 -- -- 93
2020-01-17 21:00:00 7.1 0 Calma -- -- 0 -- -- 91
2020-01-17 20:00:00 7.5 0 Calma 4 Sur 0 -- -- 88
2020-01-17 19:00:00 9.5 2 Sudoeste 9 Norte 0 -- -- 80
2020-01-17 18:00:00 11.5 5 Nordeste 8 Nordeste 0 -- -- 74
2020-01-17 17:00:00 12.2 5 Norte 14 Norte 0 -- -- 67
2020-01-17 16:00:00 12.3 5 Norte 15 Noroeste 0 -- -- 68
2020-01-17 15:00:00 12.7 6 Norte 23 Noroeste 0 -- -- 64
2020-01-17 14:00:00 12.3 8 Noroeste 16 Norte 0 -- -- 64
2020-01-17 13:00:00 12.1 7 Noroeste 13 Oeste 0 -- -- 63
2020-01-17 12:00:00 10.9 5 Noroeste 9 Noroeste 0 -- -- 83
2020-01-17 11:00:00 9.1 4 Noroeste 9 Sudoeste 0 -- -- 93
2020-01-17 10:00:00 8.1 5 Oeste 14 Oeste 0 -- -- 95
2020-01-17 09:00:00 6.5 5 Oeste 10 Sudoeste 0 -- -- 95
2020-01-17 08:00:00 7.3 8 Sudoeste 13 Sudoeste 0 -- -- 97
2020-01-17 07:00:00 7.8 5 Oeste 10 Sudoeste 0 -- -- 97
2020-01-17 06:00:00 8.2 9 Sudoeste 12 Sudoeste 0 -- -- 96
2020-01-17 05:00:00 9.1 6 Sudoeste 14 Sudoeste 0 -- -- 96
2020-01-17 04:00:00 9 8 Sur 26 Sudoeste 0.4 -- -- 97
2020-01-17 03:00:00 9 13 Sudoeste 31 Sudoeste 0.6 -- -- 96
2020-01-17 02:00:00 9.3 18 Sudoeste 35 Sur 0 -- -- 93
2020-01-17 01:00:00 9.3 17 Sur 36 Sur 0 -- -- 92
2020-01-17 00:00:00 9.3 16 Sudoeste 36 Sudoeste 0 -- -- 89
2020-01-16 23:00:00 8.9 18 Sudoeste 36 Sudoeste 0 -- -- 88
2020-01-16 22:00:00 8.5 15 Sudoeste 34 Sudoeste 0 -- -- 87
2020-01-16 21:00:00 8.6 15 Sur 30 Sudoeste 0 -- -- 68
2020-01-16 20:00:00 8.9 13 Sur 26 Sur 0 -- -- 60
2020-01-16 19:00:00 9.3 11 Sur 29 Sudoeste 0 -- -- 65
2020-01-16 18:00:00 10.3 8 Sur 25 Sur 0 -- -- 62
2020-01-16 17:00:00 12 15 Sur 33 Sur 0 -- -- 50
2020-01-16 16:00:00 12.6 16 Sur 35 Sur 0 -- -- 50
2020-01-16 15:00:00 12.4 17 Sudoeste 36 Sur 0 -- -- 63
2020-01-16 14:00:00 11.8 18 Sur 32 Sur 0 -- -- 63
2020-01-16 13:00:00 11 9 Sur 21 Sudeste 0 -- -- 78
2020-01-16 12:00:00 9.7 8 Sudeste 22 Sur 0 -- -- 86
2020-01-16 11:00:00 8.7 10 Sudeste 25 Sudeste 0 -- -- 91
2020-01-16 10:00:00 7.5 5 Sur 18 Sur 0 -- -- 97
2020-01-16 09:00:00 6.4 4 Oeste 25 Sudeste 0 -- -- 98
2020-01-16 08:00:00 7.3 5 Sudeste 15 Este 0 -- -- 98
2020-01-16 07:00:00 7.6 6 Sudeste 15 Sudeste 0 -- -- 98
2020-01-16 06:00:00 7.5 4 Sur 8 Sur 0 -- -- 97
2020-01-16 05:00:00 7.7 3 Sur 15 Sudoeste 0 -- -- 97
2020-01-16 04:00:00 8.1 7 Sur 17 Sur 0 -- -- 97
2020-01-16 03:00:00 8.4 7 Sudeste 15 Sur 0 -- -- 97
2020-01-16 02:00:00 8.7 6 Sur 17 Sur 0 -- -- 98
2020-01-16 01:00:00 8.9 12 Sudoeste 27 Sudoeste 0 -- -- 96
2020-01-16 00:00:00 9.1 12 Sur 26 Sur 0 -- -- 99
2020-01-15 23:00:00 9.4 13 Sur 26 Sur 0 -- -- 100
2020-01-15 22:00:00 9.1 11 Sur 19 Sur 0 -- -- 100
2020-01-15 21:00:00 8.9 9 Sudeste 22 Sudeste 0.2 -- -- 100
2020-01-15 20:00:00 8.7 10 Sur 23 Sur 0.2 -- -- 99
2020-01-15 19:00:00 8.5 10 Sur 26 Sudeste 0.4 -- -- 100
2020-01-15 18:00:00 8.3 12 Sudeste 24 Sur 0.2 -- -- 99
2020-01-15 17:00:00 7.9 12 Sudeste 22 Sur 1.2 -- -- 99
2020-01-15 16:00:00 8.6 9 Sudeste 23 Sur 0.4 -- -- 99
2020-01-15 15:00:00 8.8 9 Sur 28 Sur 0 -- -- 99
2020-01-15 14:00:00 8.9 14 Sur 34 Sur 0 -- -- 100
2020-01-15 13:00:00 8 13 Sur 35 Sur 0 -- -- 99
2020-01-15 12:00:00 7.9 19 Sur 41 Sur 0 -- -- 99
2020-01-15 11:00:00 7.6 22 Sur 42 Sur 0 -- -- 99
2020-01-15 10:00:00 6.8 15 Sur 28 Sur 0 -- -- 100
2020-01-15 09:00:00 5.7 13 Sudeste 32 Sur 0 -- -- 97
2020-01-15 08:00:00 5.4 15 Sur 36 Sudeste 0 -- -- 94
2020-01-15 07:00:00 5.5 9 Sudeste 28 Sudeste 0 -- -- 92
2020-01-15 06:00:00 5.5 12 Sur 24 Sudeste 0 -- -- 94
2020-01-15 05:00:00 5.7 8 Sudeste 21 Sur 0 -- -- 95
2020-01-15 04:00:00 6.5 13 Sur 36 Sur 0 -- -- 96
2020-01-15 03:00:00 6.2 17 Sur 28 Sur 0 -- -- 94
2020-01-15 02:00:00 6.6 18 Sur 34 Sur 0 -- -- 90
2020-01-15 01:00:00 6.7 20 Sur 34 Sur 0 -- -- 90
2020-01-15 00:00:00 6.6 23 Sur 39 Sur 0 -- -- 90
2020-01-14 23:00:00 6.7 19 Sur 37 Sudoeste 0 -- -- 90
2020-01-14 22:00:00 6.7 17 Sur 35 Sur 0 -- -- 90
2020-01-14 21:00:00 6.7 17 Sur 31 Sudoeste 0 -- -- 90
2020-01-14 20:00:00 6.5 14 Sur 33 Sur 0 -- -- 87
2020-01-14 19:00:00 6.7 15 Sur 27 Sur 0 -- -- 83
2020-01-14 18:00:00 7.7 10 Sudeste 18 Sudeste 0 -- -- 80
2020-01-14 17:00:00 8.7 10 Sudeste 23 Sudeste 0 -- -- 74
2020-01-14 16:00:00 8.4 11 Sudeste 20 Sudeste 0 -- -- 74
2020-01-14 15:00:00 8.5 8 Sur 23 Sudeste 0 -- -- 74
2020-01-14 14:00:00 9.6 11 Sudeste 32 Sur 0 -- -- 72
2020-01-14 13:00:00 9.4 8 Sudeste 22 Sudeste 0 -- -- 76
2020-01-14 12:00:00 8.2 14 Sudeste 21 Sudeste 0 -- -- 79
2020-01-14 11:00:00 7.2 11 Sudeste 16 Sudeste 0 -- -- 82
2020-01-14 10:00:00 5 3 Sur 7 Sur 0 -- -- 90
2020-01-14 09:00:00 1.8 3 Sur 8 Sudoeste 0 -- -- 94
2020-01-14 08:00:00 2.8 6 Sudoeste 9 Oeste 0 -- -- 90
2020-01-14 07:00:00 2.9 7 Sudoeste 9 Sudoeste 0 -- -- 92
2020-01-14 06:00:00 2.1 7 Sudoeste 9 Sudoeste 0 -- -- 96
2020-01-14 05:00:00 2 5 Oeste 8 Oeste 0 -- -- 92
2020-01-14 04:00:00 1.9 5 Sudoeste 8 Sudoeste 0 -- -- 96
2020-01-14 03:00:00 2 5 Sudoeste 7 Sudoeste 0 -- -- 94
2020-01-14 02:00:00 2.3 6 Sudoeste 9 Oeste 0 -- -- 93
2020-01-14 01:00:00 2.2 6 Oeste 7 Oeste 0 -- -- 91
2020-01-14 00:00:00 2.7 3 Sudoeste 12 Sudoeste 0 -- -- 89
2020-01-13 23:00:00 4.1 5 Oeste 11 Sudeste 0 -- -- 81
2020-01-13 22:00:00 4.5 5 Sur 14 Sur 0 -- -- 81
2020-01-13 21:00:00 5.2 6 Sudoeste 13 Sudoeste 0 -- -- 74
2020-01-13 20:00:00 5.7 10 Sudoeste 13 Sudoeste 0 -- -- 76
2020-01-13 19:00:00 5.3 3 Sudoeste 6 Sudoeste 0 -- -- 78
2020-01-13 18:00:00 9.1 3 Noroeste 11 Norte 0 -- -- 63
2020-01-13 17:00:00 10.8 4 Norte 15 Oeste 0 -- -- 57
2020-01-13 16:00:00 11.7 3 Oeste 17 Sur 0 -- -- 52
2020-01-13 15:00:00 11.6 8 Sudoeste 16 Sudoeste 0 -- -- 48
2020-01-13 14:00:00 11 6 Sur 18 Sudoeste 0 -- -- 51
2020-01-13 13:00:00 10.1 9 Sur 21 Sur 0 -- -- 58
2020-01-13 12:00:00 9.2 10 Sur 18 Sudeste 0 -- -- 56
2020-01-13 11:00:00 7.6 5 Sudeste 8 Sudeste 0 -- -- 70
2020-01-13 10:00:00 5.4 5 Sur 12 Sur 0 -- -- 74
2020-01-13 09:00:00 3.1 3 Sur 10 Sur 0 -- -- 81
2020-01-13 08:00:00 3.9 8 Sur 14 Sur 0 -- -- 78
2020-01-13 07:00:00 4.1 7 Sur 12 Sur 0 -- -- 77
2020-01-13 06:00:00 4.9 9 Sur 14 Sur 0 -- -- 74
2020-01-13 05:00:00 4.4 7 Sur 12 Sur 0 -- -- 74
2020-01-13 04:00:00 3.8 7 Sur 12 Sur 0 -- -- 77
2020-01-13 03:00:00 2.7 5 Sur 10 Sudeste 0 -- -- 78
2020-01-13 02:00:00 2.9 5 Sur 8 Sur 0 -- -- 79
2020-01-13 01:00:00 3.5 7 Sur 9 Sur 0 -- -- 74
2020-01-13 00:00:00 2.1 2 Sur 5 Sudoeste 0 -- -- 79
2020-01-12 23:00:00 2.8 2 Oeste 4 Oeste 0 -- -- 80
2020-01-12 22:00:00 3.6 2 Oeste 6 Noroeste 0 -- -- 74
2020-01-12 21:00:00 5.3 4 Noroeste 7 Noroeste 0 -- -- 69
2020-01-12 20:00:00 5.9 0 Calma 5 Noroeste 0 -- -- 73
2020-01-12 19:00:00 6.9 4 Noroeste 7 Noroeste 0 -- -- 64
2020-01-12 18:00:00 9.1 4 Noroeste 14 Norte 0 -- -- 48
2020-01-12 17:00:00 10.6 8 Norte 15 Nordeste 0 -- -- 43
2020-01-12 16:00:00 11.4 9 Noroeste 17 Noroeste 0 -- -- 39
2020-01-12 15:00:00 11.7 8 Norte 14 Norte 0 -- -- 45
2020-01-12 14:00:00 11.4 6 Norte 15 Norte 0 -- -- 47
2020-01-12 13:00:00 10.7 4 Norte 10 Norte 0 -- -- 47
2020-01-12 12:00:00 9.9 4 Norte 8 Norte 0 -- -- 55
2020-01-12 11:00:00 8.5 0 Calma 3 Nordeste 0 -- -- 60
2020-01-12 10:00:00 5.6 0 Calma -- -- 0 -- -- 70
2020-01-12 09:00:00 1.9 0 Calma -- -- 0 -- -- 85
2020-01-12 08:00:00 1.5 0 Calma -- -- 0 -- -- 85
2020-01-12 07:00:00 1.7 0 Calma -- -- 0 -- -- 84
2020-01-12 06:00:00 1.7 0 Calma -- -- 0 -- -- 84
2020-01-12 05:00:00 1.7 0 Calma -- -- 0 -- -- 85
2020-01-12 04:00:00 1.7 0 Calma -- -- 0 -- -- 84
2020-01-12 03:00:00 1.8 0 Calma -- -- 0 -- -- 82
2020-01-12 02:00:00 1.9 0 Calma -- -- 0 -- -- 84
2020-01-12 01:00:00 2.3 0 Calma -- -- 0 -- -- 83
2020-01-12 00:00:00 2.6 0 Calma -- -- 0 -- -- 82
2020-01-11 23:00:00 3.1 0 Calma -- -- 0 -- -- 82
2020-01-11 22:00:00 3.1 0 Calma 5 Oeste 0 -- -- 84
2020-01-11 21:00:00 3.9 0 Calma 4 Norte 0 -- -- 77
2020-01-11 20:00:00 4.8 2 Noroeste 4 Noroeste 0 -- -- 72
2020-01-11 19:00:00 5.3 3 Oeste 5 Oeste 0 -- -- 73
2020-01-11 18:00:00 8.8 0 Calma 13 Nordeste 0 -- -- 61
2020-01-11 17:00:00 10.4 6 Nordeste 14 Nordeste 0 -- -- 55
2020-01-11 16:00:00 10.9 5 Nordeste 13 Nordeste 0 -- -- 53
2020-01-11 15:00:00 10.6 7 Nordeste 16 Este 0 -- -- 52
2020-01-11 14:00:00 10.1 7 Nordeste 20 Este 0 -- -- 54
2020-01-11 13:00:00 9 13 Este 24 Este 0 -- -- 58
2020-01-11 12:00:00 8 13 Este 19 Este 0 -- -- 60
2020-01-11 11:00:00 6.3 8 Este 21 Este 0 -- -- 68
2020-01-11 10:00:00 3.6 6 Este 15 Nordeste 0 -- -- 76
2020-01-11 09:00:00 1.9 4 Sudeste 10 Este 0 -- -- 79
2020-01-11 08:00:00 1.9 3 Este 9 Este 0 -- -- 79
2020-01-11 07:00:00 2.6 6 Este 11 Este 0 -- -- 75
2020-01-11 06:00:00 3 3 Sudeste 9 Este 0 -- -- 73
2020-01-11 05:00:00 3.3 4 Este 10 Este 0 -- -- 72
2020-01-11 04:00:00 3.8 5 Este 15 Este 0 -- -- 71
2020-01-11 03:00:00 3.4 8 Este 13 Este 0 -- -- 73
2020-01-11 02:00:00 3.6 5 Este 11 Este 0 -- -- 72
2020-01-11 01:00:00 3.9 3 Este 10 Este 0 -- -- 73
2020-01-11 00:00:00 3.8 5 Este 9 Nordeste 0 -- -- 76
2020-01-10 23:00:00 3.8 0 Calma 8 Nordeste 0 -- -- 86
2020-01-10 22:00:00 4.3 2 Nordeste 14 Nordeste 0 -- -- 86
2020-01-10 21:00:00 5.3 4 Norte 13 Norte 0 -- -- 82
2020-01-10 20:00:00 5.9 6 Norte 12 Nordeste 0 -- -- 78
2020-01-10 19:00:00 6.7 5 Nordeste 19 Nordeste 0 -- -- 77
2020-01-10 18:00:00 8.1 8 Norte 21 Norte 0 -- -- 73
2020-01-10 17:00:00 9.2 16 Nordeste 26 Nordeste 0 -- -- 69
2020-01-10 16:00:00 9.5 11 Nordeste 22 Norte 0 -- -- 71
2020-01-10 15:00:00 8.7 11 Nordeste 22 Nordeste 0 -- -- 71
2020-01-10 14:00:00 7.1 6 Nordeste 21 Nordeste 0 -- -- 70
2020-01-10 13:00:00 6.1 11 Norte 21 Norte 0 -- -- 76
2020-01-10 12:00:00 5.2 13 Norte 26 Norte 0 -- -- 79
2020-01-10 11:00:00 4.2 17 Norte 27 Norte 0 -- -- 82
2020-01-10 10:00:00 2.9 11 Noroeste 22 Noroeste 0 -- -- 95
2020-01-10 09:00:00 2.2 10 Noroeste 17 Noroeste 0 -- -- 99
2020-01-10 08:00:00 2.5 8 Noroeste 18 Norte 0 -- -- 99
2020-01-10 07:00:00 3.2 9 Noroeste 18 Noroeste 0 -- -- 100
2020-01-10 06:00:00 4 11 Noroeste 23 Noroeste 0 -- -- 99
2020-01-10 05:00:00 4.8 13 Noroeste 25 Noroeste 0 -- -- 99
2020-01-10 04:00:00 5.8 13 Noroeste 25 Noroeste 0 -- -- 99
2020-01-10 03:00:00 6.8 15 Noroeste 28 Noroeste 0 -- -- 99
2020-01-10 02:00:00 7.6 15 Noroeste 25 Noroeste 0 -- -- 98
2020-01-10 01:00:00 8.2 13 Noroeste 28 Oeste 0 -- -- 98
2020-01-10 00:00:00 8.6 14 Noroeste 32 Noroeste 0 -- -- 96
2020-01-09 23:00:00 8.3 11 Noroeste 26 Noroeste 0 -- -- 94
2020-01-09 22:00:00 7.5 11 Oeste 25 Oeste 0 -- -- 93
2020-01-09 21:00:00 7.4 14 Oeste 24 Oeste 0 -- -- 84
2020-01-09 20:00:00 8.2 8 Oeste 15 Oeste 0 -- -- 79
2020-01-09 19:00:00 8.9 10 Oeste 14 Oeste 0 -- -- 73
2020-01-09 18:00:00 10.2 6 Noroeste 14 Noroeste 0 -- -- 65
2020-01-09 17:00:00 12.1 5 Noroeste 16 Noroeste 0 -- -- 55
2020-01-09 16:00:00 12.2 8 Noroeste 19 Noroeste 0 -- -- 53
2020-01-09 15:00:00 11.7 11 Noroeste 23 Noroeste 0 -- -- 56
2020-01-09 14:00:00 12.1 9 Noroeste 17 Noroeste 0 -- -- 59
2020-01-09 13:00:00 10.6 2 Este 13 Sur 0 -- -- 75
2020-01-09 12:00:00 9.8 8 Sur 14 Sudeste 0 -- -- 80
2020-01-09 11:00:00 9.8 6 Oeste 13 Noroeste 0 -- -- 64
2020-01-09 10:00:00 7.3 0 Calma 17 Sudoeste 0 -- -- 77
2020-01-09 09:00:00 5.1 6 Sudoeste 16 Sudoeste 0 -- -- 87
2020-01-09 08:00:00 6.5 4 Sudoeste 14 Sudoeste 0 -- -- 75
2020-01-09 07:00:00 4.8 4 Sur 9 Sudoeste 0 -- -- 75
2020-01-09 06:00:00 5.9 7 Sur 13 Sur 0 -- -- 76
2020-01-09 05:00:00 6.3 6 Sur 14 Sur 0 -- -- 72
2020-01-09 04:00:00 4.8 6 Sur 9 Sur 0 -- -- 76
2020-01-09 03:00:00 3.7 0 Calma 4 Sur 0 -- -- 80
2020-01-09 02:00:00 4.8 2 Noroeste 5 Noroeste 0 -- -- 78
2020-01-09 01:00:00 4.9 3 Oeste 6 Oeste 0 -- -- 71
2020-01-09 00:00:00 6.8 4 Sudoeste 11 Sudoeste 0 -- -- 52
2020-01-08 23:00:00 8.8 10 Sudoeste 14 Oeste 0 -- -- 62
2020-01-08 22:00:00 9.2 10 Oeste 18 Oeste 0 -- -- 62
2020-01-08 21:00:00 10.1 8 Oeste 17 Oeste 0 -- -- 55
2020-01-08 20:00:00 9.7 8 Oeste 12 Oeste 0 -- -- 53
2020-01-08 19:00:00 8.9 2 Oeste 8 Oeste 0 -- -- 57
2020-01-08 18:00:00 11.8 0 Calma 7 Noroeste 0 -- -- 48
2020-01-08 17:00:00 17.1 3 Noroeste 8 Noroeste 0 -- -- 33
2020-01-08 16:00:00 16.5 4 Norte 11 Noroeste 0 -- -- 32
2020-01-08 15:00:00 16.8 6 Norte 10 Norte 0 -- -- 34
2020-01-08 14:00:00 16.8 6 Norte 12 Norte 0 -- -- 29
2020-01-08 13:00:00 16.3 5 Norte 9 Norte 0 -- -- 34
2020-01-08 12:00:00 16 4 Norte 8 Norte 0 -- -- 28
2020-01-08 11:00:00 14.2 0 Calma 4 Oeste 0 -- -- 27
2020-01-08 10:00:00 10 4 Oeste 5 Oeste 0 -- -- 49
2020-01-08 09:00:00 6.6 0 Calma 4 Sur 0 -- -- 49
2020-01-08 08:00:00 5.4 2 Sudoeste 4 Sudoeste 0 -- -- 51
2020-01-08 07:00:00 4.9 3 Oeste 8 Noroeste 0 -- -- 60
2020-01-08 06:00:00 5.9 4 Noroeste 5 Noroeste 0 -- -- 49
2020-01-08 05:00:00 5.5 3 Oeste 7 Oeste 0 -- -- 53
2020-01-08 04:00:00 6.2 4 Oeste 9 Oeste 0 -- -- 55
2020-01-08 03:00:00 6.9 5 Oeste 10 Oeste 0 -- -- 55
2020-01-08 02:00:00 6.9 6 Oeste 10 Oeste 0 -- -- 66
2020-01-08 01:00:00 6 5 Oeste 8 Oeste 0 -- -- 74
2020-01-08 00:00:00 6.7 5 Noroeste 8 Oeste 0 -- -- 72
2020-01-07 23:00:00 5.8 0 Calma 6 Noroeste 0 -- -- 78
2020-01-07 22:00:00 6.3 2 Oeste 6 Oeste 0 -- -- 66
2020-01-07 21:00:00 7.4 4 Oeste 8 Noroeste 0 -- -- 71
2020-01-07 20:00:00 8.4 5 Oeste 9 Noroeste 0 -- -- 60
2020-01-07 19:00:00 8.6 6 Oeste 8 Oeste 0 -- -- 54
2020-01-07 18:00:00 11.1 6 Oeste 9 Norte 0 -- -- 56
2020-01-07 17:00:00 14.2 6 Norte 13 Norte 0 -- -- 46
2020-01-07 16:00:00 14.7 7 Norte 14 Noroeste 0 -- -- 48
2020-01-07 15:00:00 14.9 7 Norte 13 Norte 0 -- -- 44
2020-01-07 14:00:00 14.9 9 Noroeste 13 Norte 0 -- -- 40
2020-01-07 13:00:00 14.4 3 Nordeste 10 Nordeste 0 -- -- 36
2020-01-07 12:00:00 14 2 Nordeste 7 Nordeste 0 -- -- 35
2020-01-07 11:00:00 12 3 Nordeste 10 Sur 0 -- -- 53
2020-01-07 10:00:00 9.3 6 Sur 9 Sur 0 -- -- 58
2020-01-07 09:00:00 6.9 0 Calma 11 Sur 0 -- -- 59
2020-01-07 08:00:00 7 8 Sur 10 Sur 0 -- -- 46
2020-01-07 07:00:00 4.6 3 Sur 6 Sudoeste 0 -- -- 60
2020-01-07 06:00:00 5.1 0 Calma 6 Sur 0 -- -- 61
2020-01-07 05:00:00 6 2 Sur 5 Sudeste 0 -- -- 58
2020-01-07 04:00:00 4.6 2 Sur 5 Sur 0 -- -- 73
2020-01-07 03:00:00 4.2 0 Calma 3 Oeste 0 -- -- 74
2020-01-07 02:00:00 3.9 0 Calma 5 Oeste 0 -- -- 72
2020-01-07 01:00:00 4 0 Calma 5 Oeste 0 -- -- 74
2020-01-07 00:00:00 5.9 4 Noroeste 12 Oeste 0 -- -- 80
2020-01-06 23:00:00 6.2 6 Noroeste 10 Oeste 0 -- -- 83
2020-01-06 22:00:00 6.3 6 Oeste 10 Noroeste 0 -- -- 82
2020-01-06 21:00:00 7.3 4 Noroeste 8 Noroeste 0 -- -- 79
2020-01-06 20:00:00 6.8 4 Sudoeste 9 Noroeste 0 -- -- 81
2020-01-06 19:00:00 8.4 6 Oeste 9 Oeste 0 -- -- 74
2020-01-06 18:00:00 10.8 0 Calma 4 Nordeste 0 -- -- 65
2020-01-06 17:00:00 13.7 3 Nordeste 7 Nordeste 0 -- -- 56
2020-01-06 16:00:00 13.7 5 Nordeste 9 Nordeste 0 -- -- 57
2020-01-06 15:00:00 14.9 0 Calma 7 Sudeste 0 -- -- 50
2020-01-06 14:00:00 13.2 4 Norte 8 Nordeste 0 -- -- 51
2020-01-06 13:00:00 12 3 Norte 9 Noroeste 0 -- -- 60
2020-01-06 12:00:00 11.2 6 Norte 11 Noroeste 0 -- -- 61
2020-01-06 11:00:00 9.8 3 Noroeste 10 Oeste 0 -- -- 69
2020-01-06 10:00:00 7.3 2 Noroeste 10 Sur 0 -- -- 81